Time;durP1;ratioP1;P1;durP2;ratioP2;P2;SDS_P1;SDS_P2;PMS_P1;PMS_P2;Temp;Humidity;BMP_temperature;BMP_pressure;BME280_temperature;BME280_humidity;BME280_pressure;Samples;Min_cycle;Max_cycle;Signal;HPM_P1;HPM_P2
2023/07/17 00:00:24;;;;;;;;;;;;;;;23.33;28.44;98204.97;4987856;28;846;-77
2023/07/17 00:02:49;;;;;;;;;;;;;;;23.64;27.94;98201.63;4980668;28;783;-77
2023/07/17 00:05:15;;;;;;;;;;;;;;;23.48;28.10;98204.53;4998134;28;851;-77
2023/07/17 00:07:41;;;;;;;;;;;;;;;23.28;28.51;98197.00;4980901;28;1247;-77
2023/07/17 00:10:07;;;;;;;;;;;;;;;23.61;27.89;98197.59;4980513;28;1266;-76
2023/07/17 00:12:33;;;;;;;;;;;;;;;23.65;27.80;98197.53;4981097;28;1958;-77
2023/07/17 00:14:58;;;;;;;;;;;;;;;23.49;27.97;98192.72;4998018;28;858;-76
2023/07/17 00:17:24;;;;;;;;;;;;;;;23.33;28.41;98187.94;4998504;28;748;-78
2023/07/17 00:19:53;;;;;;;;;;;;;;;23.58;27.99;98187.16;4997977;28;928;-77
2023/07/17 00:22:19;;;;;;;;;;;;;;;23.50;27.97;98187.81;4981528;28;764;-77
2023/07/17 00:24:44;;;;;;;;;;;;;;;23.49;28.00;98189.09;4980224;28;1399;-77
2023/07/17 00:27:10;;;;;;;;;;;;;;;23.62;27.91;98178.50;4998096;28;851;-77
2023/07/17 00:29:35;;;;;;;;;;;;;;;23.51;27.82;98186.56;4997913;28;799;-77
2023/07/17 00:32:01;;;;;;;;;;;;;;;23.26;28.40;98182.47;4998181;28;1898;-77
2023/07/17 00:34:26;;;;;;;;;;;;;;;23.61;28.09;98188.28;4998176;28;724;-77
2023/07/17 00:36:52;;;;;;;;;;;;;;;23.58;28.09;98186.38;4957495;29;1173;-77
2023/07/17 00:39:21;;;;;;;;;;;;;;;23.28;28.39;98185.66;4932684;29;1372;-78
2023/07/17 00:41:48;;;;;;;;;;;;;;;23.26;28.27;98182.47;4928603;29;1230;-77
2023/07/17 00:44:14;;;;;;;;;;;;;;;23.50;27.86;98187.81;4928665;29;1141;-77
2023/07/17 00:46:39;;;;;;;;;;;;;;;23.66;27.66;98187.75;4928994;29;1055;-77
2023/07/17 00:49:05;;;;;;;;;;;;;;;23.57;27.82;98184.75;4944364;29;736;-77
2023/07/17 00:51:31;;;;;;;;;;;;;;;23.27;28.49;98184.06;4944773;29;1985;-78
2023/07/17 00:53:56;;;;;;;;;;;;;;;23.37;28.33;98185.00;4954145;28;1389;-77
2023/07/17 00:56:22;;;;;;;;;;;;;;;23.29;28.23;98181.56;4931906;28;900;-77
2023/07/17 00:58:49;;;;;;;;;;;;;;;23.38;28.21;98184.53;4946677;28;1369;-77
2023/07/17 01:01:14;;;;;;;;;;;;;;;23.19;28.60;98177.00;4944513;29;1398;-77
2023/07/17 01:03:41;;;;;;;;;;;;;;;23.56;27.95;98183.16;4912265;29;1256;-77
2023/07/17 01:06:06;;;;;;;;;;;;;;;23.46;28.03;98187.13;4903292;29;827;-77
2023/07/17 01:08:31;;;;;;;;;;;;;;;23.46;28.01;98185.09;4920775;29;1254;-76
2023/07/17 01:10:57;;;;;;;;;;;;;;;23.60;27.76;98184.66;4909458;29;921;-76
2023/07/17 01:13:23;;;;;;;;;;;;;;;23.63;27.81;98189.47;4932945;29;1910;-77
2023/07/17 01:15:50;;;;;;;;;;;;;;;23.61;27.67;98186.22;4928814;29;1244;-78
2023/07/17 01:18:16;;;;;;;;;;;;;;;23.57;28.03;98190.44;4944009;29;788;-77
2023/07/17 01:20:41;;;;;;;;;;;;;;;23.64;27.71;98190.25;4928623;29;1121;-78
2023/07/17 01:23:09;;;;;;;;;;;;;;;23.34;28.15;98189.50;4943765;29;1290;-78
2023/07/17 01:25:34;;;;;;;;;;;;;;;23.14;28.64;98189.72;4944291;29;728;-77
2023/07/17 01:28:01;;;;;;;;;;;;;;;23.21;28.27;98190.75;4927196;29;1366;-77
2023/07/17 01:30:26;;;;;;;;;;;;;;;23.36;28.13;98187.03;4924940;29;824;-77
2023/07/17 01:32:52;;;;;;;;;;;;;;;23.56;27.73;98188.84;4902761;29;1910;-78
2023/07/17 01:35:17;;;;;;;;;;;;;;;23.50;27.84;98196.34;4902420;29;851;-78
2023/07/17 01:37:43;;;;;;;;;;;;;;;23.75;27.47;98185.03;4902903;29;844;-77
2023/07/17 01:40:09;;;;;;;;;;;;;;;23.40;27.88;98186.91;4902659;29;753;-78
2023/07/17 01:42:34;;;;;;;;;;;;;;;23.59;27.63;98182.28;4908940;29;1385;-77
2023/07/17 01:45:00;;;;;;;;;;;;;;;23.15;28.44;98176.31;4927317;29;1262;-77
2023/07/17 01:47:27;;;;;;;;;;;;;;;23.49;27.71;98183.41;4912788;29;1159;-77
2023/07/17 01:49:52;;;;;;;;;;;;;;;23.55;27.76;98187.25;4927614;29;1240;-78
2023/07/17 01:52:18;;;;;;;;;;;;;;;23.54;27.88;98185.69;4942699;29;1903;-77
2023/07/17 01:54:43;;;;;;;;;;;;;;;23.23;28.25;98174.84;4927559;29;1237;-77
2023/07/17 01:57:09;;;;;;;;;;;;;;;23.52;28.03;98176.78;4949216;28;1396;-77
2023/07/17 01:59:34;;;;;;;;;;;;;;;23.48;27.74;98181.81;4936695;29;1342;-77
2023/07/17 02:02:00;;;;;;;;;;;;;;;23.45;27.61;98182.72;4943177;29;1401;-78
2023/07/17 02:04:26;;;;;;;;;;;;;;;23.49;27.73;98183.41;4949024;29;965;-77
2023/07/17 02:06:52;;;;;;;;;;;;;;;23.34;28.35;98183.03;4943675;29;1435;-77
2023/07/17 02:09:17;;;;;;;;;;;;;;;23.51;27.92;98197.94;4942900;29;1134;-77
2023/07/17 02:11:43;;;;;;;;;;;;;;;23.56;27.70;98194.53;4938926;29;1978;-78
2023/07/17 02:14:08;;;;;;;;;;;;;;;23.38;28.02;98192.25;4943152;29;1363;-78
2023/07/17 02:16:34;;;;;;;;;;;;;;;23.47;27.92;98185.91;4943106;29;1239;-77
2023/07/17 02:18:59;;;;;;;;;;;;;;;23.31;28.23;98190.44;4942772;29;835;-78
2023/07/17 02:21:26;;;;;;;;;;;;;;;23.44;28.15;98192.50;4943579;29;837;-77
2023/07/17 02:23:52;;;;;;;;;;;;;;;23.34;28.20;98192.34;4923445;29;1130;-77
2023/07/17 02:26:17;;;;;;;;;;;;;;;23.61;27.68;98196.81;4939444;29;1689;-77
2023/07/17 02:28:43;;;;;;;;;;;;;;;23.56;27.55;98191.69;4907434;29;1448;-78
2023/07/17 02:31:08;;;;;;;;;;;;;;;23.36;28.17;98189.88;4907590;29;1454;-77
2023/07/17 02:33:36;;;;;;;;;;;;;;;23.31;28.04;98196.13;4923388;29;1986;-76
2023/07/17 02:36:03;;;;;;;;;;;;;;;23.47;27.96;98197.28;4943010;29;1129;-78
2023/07/17 02:38:28;;;;;;;;;;;;;;;23.37;27.87;98194.31;4926496;29;1168;-77
2023/07/17 02:40:54;;;;;;;;;;;;;;;23.64;27.41;98195.94;4905233;29;1217;-77
2023/07/17 02:43:19;;;;;;;;;;;;;;;23.56;27.87;98200.22;4919927;29;1471;-77
2023/07/17 02:45:45;;;;;;;;;;;;;;;23.27;27.86;98195.44;4897842;29;1406;-77
2023/07/17 02:48:11;;;;;;;;;;;;;;;23.44;27.99;98198.16;4907625;29;1344;-78
2023/07/17 02:50:38;;;;;;;;;;;;;;;23.50;27.91;98207.72;4917012;29;1243;-78
2023/07/17 02:53:03;;;;;;;;;;;;;;;23.45;27.74;98199.75;4917315;29;1919;-77
2023/07/17 02:55:29;;;;;;;;;;;;;;;23.64;27.50;98208.09;4901342;29;1279;-78
2023/07/17 02:57:54;;;;;;;;;;;;;;;23.22;28.26;98210.19;4900926;29;868;-77
2023/07/17 03:00:20;;;;;;;;;;;;;;;23.38;27.77;98201.56;4900998;29;1157;-78
2023/07/17 03:02:46;;;;;;;;;;;;;;;23.30;28.02;98199.38;4900733;29;1121;-77
2023/07/17 03:05:12;;;;;;;;;;;;;;;23.21;28.09;98211.44;4906243;29;1385;-78
2023/07/17 03:07:40;;;;;;;;;;;;;;;23.32;27.90;98203.38;4923021;29;943;-77
2023/07/17 03:10:07;;;;;;;;;;;;;;;23.49;27.86;98206.13;4922440;29;817;-77
2023/07/17 03:12:32;;;;;;;;;;;;;;;23.50;27.59;98205.66;4951995;28;1910;-78
2023/07/17 03:14:58;;;;;;;;;;;;;;;23.54;27.55;98214.09;4919130;29;941;-78
2023/07/17 03:17:23;;;;;;;;;;;;;;;23.63;27.40;98206.50;4903949;29;1317;-77
2023/07/17 03:19:51;;;;;;;;;;;;;;;23.58;27.67;98211.94;4902926;29;1509;-78
2023/07/17 03:22:17;;;;;;;;;;;;;;;23.52;28.00;98217.38;4890730;29;1297;-78
2023/07/17 03:24:42;;;;;;;;;;;;;;;23.60;27.41;98210.22;4922492;29;1331;-77
2023/07/17 03:27:09;;;;;;;;;;;;;;;23.59;27.31;98199.31;4938061;29;890;-77
2023/07/17 03:29:34;;;;;;;;;;;;;;;23.56;27.62;98217.25;4922310;29;1302;-77
2023/07/17 03:32:01;;;;;;;;;;;;;;;23.56;27.47;98217.25;4919019;29;2049;-77
2023/07/17 03:34:27;;;;;;;;;;;;;;;23.50;27.77;98227.59;4935304;29;992;-77
2023/07/17 03:36:52;;;;;;;;;;;;;;;23.11;28.11;98218.22;4919763;29;1225;-77
2023/07/17 03:39:18;;;;;;;;;;;;;;;23.34;28.04;98217.91;4911708;29;1086;-77
2023/07/17 03:41:44;;;;;;;;;;;;;;;23.48;27.92;98218.75;4908362;29;1229;-77
2023/07/17 03:44:09;;;;;;;;;;;;;;;23.45;27.66;98220.41;4880460;29;1793;-77
2023/07/17 03:46:35;;;;;;;;;;;;;;;23.57;27.69;98224.53;4898890;29;1317;-77
2023/07/17 03:49:02;;;;;;;;;;;;;;;23.47;28.02;98234.97;4919342;29;1067;-77
2023/07/17 03:51:27;;;;;;;;;;;;;;;23.35;27.98;98228.00;4888416;29;1996;-77
2023/07/17 03:53:53;;;;;;;;;;;;;;;23.17;28.60;98222.09;4919306;29;1138;-77
2023/07/17 03:56:18;;;;;;;;;;;;;;;23.29;28.30;98221.31;4918899;29;903;-77
2023/07/17 03:58:45;;;;;;;;;;;;;;;23.42;28.17;98217.72;4921391;29;1281;-78
2023/07/17 04:01:11;;;;;;;;;;;;;;;23.43;28.20;98207.94;4922486;29;1287;-77
2023/07/17 04:03:42;;;;;;;;;;;;;;;22.77;28.85;98219.53;4950935;28;1182;-78
2023/07/17 04:06:08;;;;;;;;;;;;;;;23.10;28.42;98220.25;4949015;28;1274;-78
2023/07/17 04:08:34;;;;;;;;;;;;;;;23.20;28.26;98226.84;4941338;28;1263;-78
2023/07/17 04:11:00;;;;;;;;;;;;;;;23.56;27.90;98222.94;4941143;29;1295;-78
2023/07/17 04:13:26;;;;;;;;;;;;;;;23.34;28.56;98222.78;4947515;29;1975;-79
2023/07/17 04:15:52;;;;;;;;;;;;;;;23.45;28.18;98234.63;4969225;28;1272;-78
2023/07/17 04:18:18;;;;;;;;;;;;;;;23.62;27.88;98226.78;4971568;28;1243;-78
2023/07/17 04:20:44;;;;;;;;;;;;;;;23.68;28.00;98219.34;4952174;28;1183;-78
2023/07/17 04:23:10;;;;;;;;;;;;;;;23.53;28.07;98224.66;4983527;28;1174;-78
2023/07/17 04:25:39;;;;;;;;;;;;;;;23.43;28.46;98224.97;4984456;28;1072;-78
2023/07/17 04:28:06;;;;;;;;;;;;;;;23.36;28.44;98223.94;4947225;28;1284;-78
2023/07/17 04:30:32;;;;;;;;;;;;;;;23.62;28.19;98221.94;4947245;28;1439;-79
2023/07/17 04:32:58;;;;;;;;;;;;;;;23.57;28.04;98218.84;4963020;28;1902;-78
2023/07/17 04:35:23;;;;;;;;;;;;;;;23.64;28.13;98218.66;4905959;29;1150;-78
2023/07/17 04:37:50;;;;;;;;;;;;;;;23.65;28.23;98220.25;4890299;29;1210;-78
2023/07/17 04:40:15;;;;;;;;;;;;;;;23.66;28.04;98216.16;4890120;29;904;-78
2023/07/17 04:42:43;;;;;;;;;;;;;;;23.69;27.93;98220.94;4890491;29;1156;-79
2023/07/17 04:45:09;;;;;;;;;;;;;;;23.45;28.44;98222.47;4905780;29;1083;-78
2023/07/17 04:47:35;;;;;;;;;;;;;;;23.43;28.66;98219.31;4890226;29;1185;-78
2023/07/17 04:50:01;;;;;;;;;;;;;;;23.55;28.40;98227.03;4890386;29;1142;-79
2023/07/17 04:52:30;;;;;;;;;;;;;;;23.78;27.99;98234.47;4891358;29;1994;-79
2023/07/17 04:54:55;;;;;;;;;;;;;;;23.55;28.37;98227.81;4906333;29;831;-78
2023/07/17 04:57:21;;;;;;;;;;;;;;;23.56;28.20;98229.41;4906652;29;1124;-79
2023/07/17 04:59:47;;;;;;;;;;;;;;;23.67;28.23;98228.31;4920891;29;1230;-79
2023/07/17 05:02:12;;;;;;;;;;;;;;;23.53;28.60;98229.53;4893862;29;1138;-79
2023/07/17 05:04:38;;;;;;;;;;;;;;;23.60;28.53;98230.09;4909014;29;1286;-78
2023/07/17 05:07:05;;;;;;;;;;;;;;;23.60;28.58;98229.31;4971334;28;795;-79
2023/07/17 05:09:30;;;;;;;;;;;;;;;23.34;28.82;98229.28;5006874;28;1172;-76
2023/07/17 05:11:56;;;;;;;;;;;;;;;23.56;28.46;98234.28;4987384;28;1983;-76
2023/07/17 05:14:22;;;;;;;;;;;;;;;23.63;28.56;98228.44;4986970;28;1173;-76
2023/07/17 05:16:49;;;;;;;;;;;;;;;23.47;28.72;98234.19;4971208;28;1071;-76
2023/07/17 05:19:15;;;;;;;;;;;;;;;23.83;28.18;98243.22;5002956;28;1155;-77
2023/07/17 05:21:41;;;;;;;;;;;;;;;23.83;28.14;98237.53;4987221;28;1170;-77
2023/07/17 05:24:06;;;;;;;;;;;;;;;23.58;28.73;98237.50;5020208;28;1180;-77
2023/07/17 05:26:32;;;;;;;;;;;;;;;23.54;28.62;98236.81;4986368;28;1179;-77
2023/07/17 05:28:58;;;;;;;;;;;;;;;23.78;28.16;98238.09;4986597;28;1250;-77
2023/07/17 05:31:24;;;;;;;;;;;;;;;23.54;28.88;98245.31;4987054;28;1985;-77
2023/07/17 05:33:49;;;;;;;;;;;;;;;23.53;28.93;98240.91;4985672;28;979;-77
2023/07/17 05:36:15;;;;;;;;;;;;;;;23.64;28.83;98247.06;4970778;28;1191;-77
2023/07/17 05:38:42;;;;;;;;;;;;;;;23.38;28.87;98247.00;4970670;28;1328;-77
2023/07/17 05:41:08;;;;;;;;;;;;;;;23.47;29.08;98248.41;5003720;28;1178;-76
2023/07/17 05:43:35;;;;;;;;;;;;;;;23.76;28.25;98249.13;5002753;28;874;-76
2023/07/17 05:46:09;;;;;;;;;;;;;;;23.37;29.21;98245.41;4973142;28;1197;-77
2023/07/17 05:48:34;;;;;;;;;;;;;;;23.34;29.13;98248.34;4962276;28;1191;-77
2023/07/17 05:51:00;;;;;;;;;;;;;;;23.57;29.06;98252.91;4946959;28;1368;-76
2023/07/17 05:53:25;;;;;;;;;;;;;;;23.45;29.11;98256.56;4930525;28;1911;-77
2023/07/17 05:55:53;;;;;;;;;;;;;;;23.66;28.85;98250.25;4940696;29;1224;-77
2023/07/17 05:58:18;;;;;;;;;;;;;;;23.65;28.79;98260.03;4923986;29;1173;-77
2023/07/17 06:00:45;;;;;;;;;;;;;;;23.62;28.78;98258.03;4924529;29;1122;-76
2023/07/17 06:03:10;;;;;;;;;;;;;;;23.49;28.90;98266.56;4908292;29;1407;-77
2023/07/17 06:05:37;;;;;;;;;;;;;;;23.69;28.55;98265.59;4940028;29;1208;-77
2023/07/17 06:08:03;;;;;;;;;;;;;;;23.49;29.21;98262.94;4924174;29;1226;-76
2023/07/17 06:10:29;;;;;;;;;;;;;;;23.50;29.30;98265.31;4908127;29;1002;-76
2023/07/17 06:16:29;;;;;;;;;;;;;;;23.82;28.84;98258.66;4939767;29;824;-76
2023/07/17 06:18:54;;;;;;;;;;;;;;;23.79;28.68;98259.59;4932773;28;822;-77
2023/07/17 06:21:20;;;;;;;;;;;;;;;23.61;28.94;98264.97;4962219;28;847;-77
2023/07/17 06:23:45;;;;;;;;;;;;;;;23.77;28.78;98253.53;4945554;28;1088;-77
2023/07/17 06:26:11;;;;;;;;;;;;;;;23.72;28.75;98254.09;4955154;28;899;-76
2023/07/17 06:28:36;;;;;;;;;;;;;;;23.88;28.87;98254.03;4984473;28;855;-77
2023/07/17 06:31:01;;;;;;;;;;;;;;;23.74;28.59;98260.16;4986266;28;720;-77
2023/07/17 06:33:27;;;;;;;;;;;;;;;23.81;28.61;98261.97;4985158;28;1992;-77
2023/07/17 06:35:52;;;;;;;;;;;;;;;23.44;29.44;98260.63;4986305;28;779;-76
2023/07/17 06:38:18;;;;;;;;;;;;;;;23.81;28.85;98257.06;4984783;28;791;-77
2023/07/17 06:40:44;;;;;;;;;;;;;;;23.84;28.56;98264.69;5001579;28;720;-77
2023/07/17 06:43:09;;;;;;;;;;;;;;;23.69;28.82;98249.34;5001020;28;995;-76
2023/07/17 06:45:35;;;;;;;;;;;;;;;23.74;28.93;98245.16;5017839;28;768;-77
2023/07/17 06:48:00;;;;;;;;;;;;;;;23.74;28.92;98248.78;5001607;28;1546;-77
2023/07/17 06:50:25;;;;;;;;;;;;;;;23.75;28.83;98253.22;5001517;28;1252;-77
2023/07/17 06:52:52;;;;;;;;;;;;;;;23.77;29.12;98250.69;4985241;28;1977;-76
2023/07/17 06:55:19;;;;;;;;;;;;;;;23.57;29.17;98258.59;4985036;28;775;-77
2023/07/17 06:57:45;;;;;;;;;;;;;;;23.71;29.21;98258.19;5018700;28;727;-76
2023/07/17 07:00:10;;;;;;;;;;;;;;;23.88;28.49;98259.72;4977108;28;953;-77
2023/07/17 07:02:36;;;;;;;;;;;;;;;23.81;28.98;98256.28;4961264;28;982;-76
2023/07/17 07:05:01;;;;;;;;;;;;;;;23.57;29.37;98264.28;4977052;28;929;-77
2023/07/17 07:07:36;;;;;;;;;;;;;;;23.76;29.08;98260.47;4977319;28;748;-77
2023/07/17 07:10:01;;;;;;;;;;;;;;;23.52;29.53;98259.97;4976953;28;894;-76
2023/07/17 07:12:27;;;;;;;;;;;;;;;23.61;29.24;98259.28;4961253;28;1989;-77
2023/07/17 07:14:52;;;;;;;;;;;;;;;23.78;29.11;98251.53;4961355;28;830;-78
2023/07/17 07:17:18;;;;;;;;;;;;;;;23.74;29.07;98242.31;4977857;28;756;-77
2023/07/17 07:19:43;;;;;;;;;;;;;;;23.70;29.30;98250.13;4961112;28;921;-77
2023/07/17 07:22:09;;;;;;;;;;;;;;;23.72;29.21;98251.25;4961587;28;787;-77
2023/07/17 07:24:35;;;;;;;;;;;;;;;23.65;29.37;98248.66;4976627;28;1260;-77
2023/07/17 07:27:00;;;;;;;;;;;;;;;23.63;29.62;98246.28;4945369;28;1284;-77
2023/07/17 07:29:26;;;;;;;;;;;;;;;23.64;29.49;98247.06;4960936;28;843;-76
2023/07/17 07:31:51;;;;;;;;;;;;;;;23.66;29.50;98247.41;5010023;28;1910;-76
2023/07/17 07:34:17;;;;;;;;;;;;;;;23.57;29.33;98242.38;5000532;28;724;-77
2023/07/17 07:36:42;;;;;;;;;;;;;;;23.54;29.61;98253.84;4984615;28;729;-77
2023/07/17 07:39:08;;;;;;;;;;;;;;;23.85;28.96;98249.25;5000063;28;839;-77
2023/07/17 07:41:34;;;;;;;;;;;;;;;23.72;29.36;98247.63;5000903;28;721;-76
2023/07/17 07:44:00;;;;;;;;;;;;;;;23.75;29.44;98247.53;4984278;28;1310;-76
2023/07/17 07:50:01;;;;;;;;;;;;;;;23.47;29.49;98254.88;4975920;28;883;-77
2023/07/17 07:52:26;;;;;;;;;;;;;;;23.59;29.47;98261.81;4960793;28;1974;-76
2023/07/17 07:54:52;;;;;;;;;;;;;;;23.74;29.16;98263.00;4976588;28;742;-76
2023/07/17 07:57:17;;;;;;;;;;;;;;;23.86;29.03;98258.56;4944689;28;835;-77
2023/07/17 07:59:43;;;;;;;;;;;;;;;23.79;29.42;98262.44;4944655;28;779;-77
2023/07/17 08:02:09;;;;;;;;;;;;;;;23.49;29.75;98262.94;4960617;28;944;-77
2023/07/17 08:04:35;;;;;;;;;;;;;;;23.89;29.36;98266.97;4960659;28;744;-77
2023/07/17 08:07:00;;;;;;;;;;;;;;;23.80;29.42;98260.38;4960962;28;966;-77
2023/07/17 08:09:25;;;;;;;;;;;;;;;23.69;29.63;98255.03;4960437;28;1391;-75
2023/07/17 08:11:52;;;;;;;;;;;;;;;23.61;29.73;98259.28;4960575;28;2005;-76
2023/07/17 08:14:20;;;;;;;;;;;;;;;23.74;29.36;98260.16;4960373;28;948;-76
2023/07/17 08:16:46;;;;;;;;;;;;;;;23.45;29.83;98262.22;4970655;28;947;-77
2023/07/17 08:19:12;;;;;;;;;;;;;;;23.84;29.67;98261.06;5000082;28;739;-77
2023/07/17 08:21:37;;;;;;;;;;;;;;;23.94;29.40;98264.81;5000399;28;835;-76
2023/07/17 08:24:03;;;;;;;;;;;;;;;23.74;29.68;98260.16;4999814;28;1289;-76
2023/07/17 08:26:28;;;;;;;;;;;;;;;23.89;29.43;98269.03;5000486;28;763;-76
2023/07/17 08:29:03;;;;;;;;;;;;;;;23.69;29.55;98263.56;5000058;28;736;-77
2023/07/17 08:31:29;;;;;;;;;;;;;;;23.79;29.53;98264.47;5000502;28;1975;-76
2023/07/17 08:33:55;;;;;;;;;;;;;;;23.99;29.11;98269.94;5016399;28;801;-77
2023/07/17 08:36:22;;;;;;;;;;;;;;;23.84;29.45;98266.75;4983137;28;872;-77
2023/07/17 08:38:47;;;;;;;;;;;;;;;23.85;29.56;98266.28;5017484;28;787;-76
2023/07/17 08:41:13;;;;;;;;;;;;;;;23.82;29.61;98269.22;4983635;28;812;-76
2023/07/17 08:43:39;;;;;;;;;;;;;;;23.86;29.47;98258.56;4982895;28;1286;-77
2023/07/17 08:46:05;;;;;;;;;;;;;;;23.75;29.79;98258.91;5000001;28;772;-78
2023/07/17 08:48:30;;;;;;;;;;;;;;;23.51;30.16;98271.78;4998422;28;847;-78
2023/07/17 08:50:56;;;;;;;;;;;;;;;23.81;29.75;98267.66;5018018;28;726;-78
2023/07/17 08:53:23;;;;;;;;;;;;;;;23.85;29.50;98266.28;4998816;28;1985;-78
2023/07/17 08:55:48;;;;;;;;;;;;;;;23.82;29.50;98274.91;4983681;28;1098;-79
2023/07/17 08:58:14;;;;;;;;;;;;;;;23.75;29.79;98267.41;4998653;28;859;-78
2023/07/17 09:00:40;;;;;;;;;;;;;;;23.49;30.07;98269.41;4999434;28;716;-78
2023/07/17 09:03:05;;;;;;;;;;;;;;;23.99;29.37;98261.41;5002481;28;763;-78
2023/07/17 09:05:31;;;;;;;;;;;;;;;23.87;29.64;98255.25;4986840;28;1382;-79
2023/07/17 09:07:56;;;;;;;;;;;;;;;23.75;29.52;98258.91;5003005;28;1307;-78
2023/07/17 09:10:23;;;;;;;;;;;;;;;23.61;30.00;98262.13;5003159;28;1183;-78
2023/07/17 09:12:49;;;;;;;;;;;;;;;23.89;29.63;98258.44;4970753;28;1911;-78
2023/07/17 09:15:17;;;;;;;;;;;;;;;23.71;29.67;98263.88;5003119;28;1249;-79
2023/07/17 09:17:43;;;;;;;;;;;;;;;23.71;29.79;98263.88;4959434;29;1102;-79
2023/07/17 09:20:10;;;;;;;;;;;;;;;23.77;29.51;98261.28;4959135;29;830;-79
2023/07/17 09:22:37;;;;;;;;;;;;;;;24.00;29.27;98263.00;4943534;29;764;-79
2023/07/17 09:25:02;;;;;;;;;;;;;;;24.10;29.15;98251.28;4943670;29;1454;-78
2023/07/17 09:27:28;;;;;;;;;;;;;;;23.87;29.67;98260.13;4959643;29;722;-80
2023/07/17 09:29:53;;;;;;;;;;;;;;;23.89;29.42;98264.13;4958822;29;721;-79
2023/07/17 09:32:21;;;;;;;;;;;;;;;23.83;29.34;98265.97;4959916;29;1981;-78
2023/07/17 09:34:51;;;;;;;;;;;;;;;23.95;29.33;98266.41;4958836;29;880;-79
2023/07/17 09:37:16;;;;;;;;;;;;;;;23.99;29.46;98258.56;4943291;29;1273;-79
2023/07/17 09:39:42;;;;;;;;;;;;;;;23.58;30.03;98260.22;4943394;29;1274;-79
2023/07/17 09:42:30;;;;;;;;;;;;;;;23.87;29.70;98263.78;4943440;29;878;-78
2023/07/17 09:44:55;;;;;;;;;;;;;;;23.91;29.45;98258.78;4959312;29;751;-78
2023/07/17 09:47:21;;;;;;;;;;;;;;;23.89;29.72;98261.28;4924477;29;1109;-79
2023/07/17 09:49:52;;;;;;;;;;;;;;;23.88;29.44;98256.88;4960577;28;791;-78
2023/07/17 09:52:18;;;;;;;;;;;;;;;24.18;29.02;98261.13;4946576;28;1907;-79
2023/07/17 09:54:44;;;;;;;;;;;;;;;23.98;29.14;98254.09;4978455;28;779;-76
2023/07/17 09:57:09;;;;;;;;;;;;;;;23.86;29.49;98252.88;4962892;28;809;-77
2023/07/17 09:59:35;;;;;;;;;;;;;;;23.86;29.55;98250.81;4946480;28;981;-76
2023/07/17 10:02:01;;;;;;;;;;;;;;;23.92;29.44;98251.84;4962672;28;835;-76
2023/07/17 10:04:31;;;;;;;;;;;;;;;23.99;29.52;98255.72;4946168;28;1212;-76
2023/07/17 10:06:57;;;;;;;;;;;;;;;23.96;29.27;98257.41;4962664;28;929;-76
2023/07/17 10:09:22;;;;;;;;;;;;;;;23.95;29.26;98257.88;4978361;28;789;-76
2023/07/17 10:11:48;;;;;;;;;;;;;;;23.91;29.22;98255.94;4962416;28;1910;-76
2023/07/17 10:14:13;;;;;;;;;;;;;;;23.87;29.20;98246.72;4945173;28;1263;-77
2023/07/17 10:16:39;;;;;;;;;;;;;;;24.00;29.45;98251.63;4932229;29;1505;-77
2023/07/17 10:19:04;;;;;;;;;;;;;;;23.85;29.50;98251.28;4935454;29;791;-77
2023/07/17 10:21:30;;;;;;;;;;;;;;;23.97;29.47;98244.00;4958808;28;884;-77
2023/07/17 10:24:00;;;;;;;;;;;;;;;23.89;29.65;98241.41;4941825;29;1246;-77
2023/07/17 10:26:25;;;;;;;;;;;;;;;23.87;29.31;98251.63;4958956;29;1230;-77
2023/07/17 10:28:54;;;;;;;;;;;;;;;23.88;29.19;98256.88;4974081;28;1492;-78
2023/07/17 10:31:19;;;;;;;;;;;;;;;23.90;29.29;98240.13;4958374;29;907;-77
2023/07/17 10:33:51;;;;;;;;;;;;;;;24.04;29.18;98252.31;4958092;28;1918;-77
2023/07/17 10:36:17;;;;;;;;;;;;;;;23.99;29.09;98256.53;4959224;28;859;-77
2023/07/17 10:38:47;;;;;;;;;;;;;;;23.89;29.33;98235.72;4974106;28;799;-77
2023/07/17 10:41:13;;;;;;;;;;;;;;;23.99;29.20;98239.47;4974150;28;801;-77
2023/07/17 10:43:58;;;;;;;;;;;;;;;23.86;29.25;98241.50;4942037;29;1172;-78
2023/07/17 10:46:30;;;;;;;;;;;;;;;23.81;29.56;98231.50;4958313;28;1135;-77
2023/07/17 10:49:09;;;;;;;;;;;;;;;23.76;29.91;98236.97;4981701;28;946;-77
2023/07/17 10:51:41;;;;;;;;;;;;;;;23.83;29.69;98242.44;4977806;28;1903;-77
2023/07/17 10:54:06;;;;;;;;;;;;;;;23.74;29.69;98230.94;4977134;28;849;-77
2023/07/17 10:56:32;;;;;;;;;;;;;;;23.79;29.57;98231.16;4977356;28;810;-78
2023/07/17 10:58:58;;;;;;;;;;;;;;;24.10;29.32;98222.84;4977113;28;760;-78
2023/07/17 11:01:23;;;;;;;;;;;;;;;23.80;29.64;98227.06;4961494;28;1121;-78
2023/07/17 11:03:49;;;;;;;;;;;;;;;24.03;29.43;98227.97;4976251;28;827;-78
2023/07/17 11:06:17;;;;;;;;;;;;;;;23.84;29.78;98227.75;4960405;28;1437;-78
2023/07/17 11:08:49;;;;;;;;;;;;;;;23.72;29.47;98225.69;4975970;28;732;-78
2023/07/17 11:11:15;;;;;;;;;;;;;;;23.82;29.45;98216.03;4977042;28;953;-79
2023/07/17 11:13:42;;;;;;;;;;;;;;;24.01;29.48;98227.63;4976169;28;1922;-77
2023/07/17 11:16:08;;;;;;;;;;;;;;;23.92;29.29;98223.41;4957350;29;1036;-78
2023/07/17 11:18:42;;;;;;;;;;;;;;;23.94;29.14;98222.97;4924733;29;746;-78
2023/07/17 11:21:08;;;;;;;;;;;;;;;23.60;29.90;98226.47;4942162;29;1295;-78
2023/07/17 11:23:34;;;;;;;;;;;;;;;23.57;30.04;98230.19;4943236;28;1082;-79
2023/07/17 11:25:59;;;;;;;;;;;;;;;23.85;29.53;98229.34;4976308;28;798;-78
2023/07/17 11:28:26;;;;;;;;;;;;;;;24.01;29.22;98230.47;4944532;28;1260;-78
2023/07/17 11:30:52;;;;;;;;;;;;;;;23.67;29.67;98228.31;4977260;28;817;-79
2023/07/17 11:33:17;;;;;;;;;;;;;;;23.76;29.65;98234.91;4976503;28;1977;-78
2023/07/17 11:35:46;;;;;;;;;;;;;;;23.82;29.49;98226.59;4961076;28;948;-78
2023/07/17 11:38:14;;;;;;;;;;;;;;;23.97;29.42;98229.78;4960897;28;751;-78
2023/07/17 11:41:11;;;;;;;;;;;;;;;23.89;29.55;98227.19;4960931;28;1009;-78
2023/07/17 11:43:37;;;;;;;;;;;;;;;23.90;29.67;98231.63;4900227;29;872;-79
2023/07/17 11:46:04;;;;;;;;;;;;;;;23.80;29.69;98229.13;4885971;29;1072;-78
2023/07/17 11:48:30;;;;;;;;;;;;;;;23.99;29.27;98233.00;4919467;29;807;-78
2023/07/17 11:50:56;;;;;;;;;;;;;;;23.81;29.49;98231.50;4903828;29;808;-78
2023/07/17 11:53:22;;;;;;;;;;;;;;;23.85;29.50;98226.50;4918967;29;1918;-78
2023/07/17 11:55:47;;;;;;;;;;;;;;;23.81;29.79;98228.66;4872837;29;1216;-78
2023/07/17 11:58:16;;;;;;;;;;;;;;;24.12;29.05;98230.91;4919146;29;820;-79
2023/07/17 12:00:42;;;;;;;;;;;;;;;24.02;29.44;98215.00;4903768;29;889;-78
2023/07/17 12:03:07;;;;;;;;;;;;;;;24.00;29.40;98217.53;4919351;29;855;-78
2023/07/17 12:05:39;;;;;;;;;;;;;;;23.74;29.69;98217.53;4888275;29;1307;-78
2023/07/17 12:08:05;;;;;;;;;;;;;;;23.65;29.85;98220.25;4903348;29;1123;-79
2023/07/17 12:10:30;;;;;;;;;;;;;;;23.77;29.70;98213.75;4888330;29;856;-78
2023/07/17 12:12:56;;;;;;;;;;;;;;;23.81;29.44;98214.44;4903652;29;1998;-78
2023/07/17 12:15:22;;;;;;;;;;;;;;;24.03;29.36;98216.59;4888134;29;1237;-78
2023/07/17 12:17:48;;;;;;;;;;;;;;;23.88;29.46;98211.41;4887915;29;744;-78
2023/07/17 12:20:15;;;;;;;;;;;;;;;24.14;29.19;98211.38;4956566;28;1267;-78
2023/07/17 12:22:41;;;;;;;;;;;;;;;23.85;29.27;98215.13;4977669;28;1097;-78
2023/07/17 12:25:07;;;;;;;;;;;;;;;23.66;29.84;98210.47;4960966;28;1017;-77
2023/07/17 12:27:32;;;;;;;;;;;;;;;23.80;29.80;98214.91;4977584;28;811;-78
2023/07/17 12:29:58;;;;;;;;;;;;;;;23.90;29.45;98220.25;4961327;28;1085;-78
2023/07/17 12:32:23;;;;;;;;;;;;;;;23.81;29.76;98217.28;4978891;28;1985;-78
2023/07/17 12:34:50;;;;;;;;;;;;;;;23.87;29.49;98209.00;4977259;28;846;-78
2023/07/17 12:40:50;;;;;;;;;;;;;;;23.88;29.73;98221.94;4982501;28;602;-78
2023/07/17 12:43:15;;;;;;;;;;;;;;;23.75;29.66;98212.63;4980558;28;835;-78
2023/07/17 12:45:41;;;;;;;;;;;;;;;23.68;29.84;98213.66;4981077;28;760;-78
2023/07/17 12:48:09;;;;;;;;;;;;;;;23.73;29.62;98210.25;4964772;28;1255;-78
2023/07/17 12:50:34;;;;;;;;;;;;;;;23.93;29.57;98212.84;4981086;28;784;-78
2023/07/17 12:53:00;;;;;;;;;;;;;;;23.81;29.71;98217.28;4964919;28;1984;-78
2023/07/17 12:55:26;;;;;;;;;;;;;;;23.92;29.54;98212.06;4981922;28;783;-78
2023/07/17 12:57:51;;;;;;;;;;;;;;;24.08;29.37;98213.16;4980920;28;1084;-78
2023/07/17 13:00:17;;;;;;;;;;;;;;;23.91;29.53;98221.84;4982123;28;736;-78
2023/07/17 13:02:42;;;;;;;;;;;;;;;23.91;29.39;98216.16;4981001;28;965;-77
2023/07/17 13:05:08;;;;;;;;;;;;;;;23.91;29.34;98221.03;4964402;28;1057;-78